LFMT/MPL METAR and TAF weather

Enter ICAO airport designator
Station Type Date Time Source
LFMT METAR 2020/09/27 17:30 UTC NOAA

LFMT 271730Z AUTO 29017KT 9999 FEW049 OVC084 14/06 Q1010 TEMPO RA BECMG 30020G30KT


Station Type Date Time Source
LFMT Decoded METAR 2020/09/27 17:30 UTC NOAA

Montpellier, France (LFMT) 43-35N 003-58E 6M
Sep 27, 2020 - 01:30 PM EDT / 2020.09.27 1730 UTC
Wind: from the WNW (290 degrees) at 20 MPH (17 KT):0
Visibility: greater than 7 mile(s):0
Sky conditions: overcast
Temperature: 57 F (14 C)
Dew Point: 42 F (6 C)
Relative Humidity: 58%
Pressure (altimeter): 29.83 in. Hg (1010 hPa)
ob: LFMT 271730Z AUTO 29017KT 9999 FEW049 OVC084 14/06 Q1010 TEMPO RA BECMG 30020G30KT
cycle: 17

Station Type Date Time Source
LFMT TAF 2020/09/27 15:21 UTC NOAA

TAF LFMT 271400Z 2715/2815 30020G30KT CAVOK
TEMPO 2715/2809 9999 RA BKN040

Example: see airport list